Time;durP1;ratioP1;P1;durP2;ratioP2;P2;SDS_P1;SDS_P2;PMS_P1;PMS_P2;Temp;Humidity;BMP_temperature;BMP_pressure;BME280_temperature;BME280_humidity;BME280_pressure;Samples;Min_cycle;Max_cycle;Signal;HPM_P1;HPM_P2
2023/02/14 00:00:45;;;;;;;2.38;1.30;;;4.50;91.20;;;;;;5113754;28;20040;-73
2023/02/14 00:03:12;;;;;;;2.08;1.30;;;4.50;91.20;;;;;;5113791;28;20478;-72
2023/02/14 00:05:37;;;;;;;2.30;1.33;;;4.50;91.20;;;;;;5095309;28;20054;-72
2023/02/14 00:08:03;;;;;;;2.67;1.40;;;4.50;91.20;;;;;;5113427;28;20031;-72
2023/02/14 00:10:29;;;;;;;2.83;1.50;;;4.40;91.20;;;;;;5114045;28;20094;-73
2023/02/14 00:12:54;;;;;;;1.75;1.10;;;4.40;91.20;;;;;;5078490;28;20546;-73
2023/02/14 00:15:21;;;;;;;2.78;1.40;;;4.40;91.20;;;;;;5078405;28;20089;-73
2023/02/14 00:17:49;;;;;;;3.33;1.42;;;4.40;91.20;;;;;;5113488;28;20051;-72
2023/02/14 00:20:14;;;;;;;2.47;1.40;;;4.30;91.20;;;;;;5095522;28;20408;-72
2023/02/14 00:22:40;;;;;;;2.00;1.20;;;4.30;91.30;;;;;;5077479;28;20138;-72
2023/02/14 00:25:06;;;;;;;2.67;1.40;;;4.20;91.30;;;;;;5113238;28;20074;-72
2023/02/14 00:27:32;;;;;;;1.77;1.15;;;4.30;91.30;;;;;;5078291;28;20447;-72
2023/02/14 00:30:01;;;;;;;1.65;1.20;;;4.30;91.60;;;;;;5095398;28;20036;-72
2023/02/14 00:32:28;;;;;;;2.42;1.27;;;4.30;91.30;;;;;;5095488;28;20593;-72
2023/02/14 00:34:53;;;;;;;2.13;1.20;;;4.30;91.30;;;;;;5095100;28;20489;-72
2023/02/14 00:37:19;;;;;;;2.45;1.30;;;4.20;91.30;;;;;;5095107;28;20042;-72
2023/02/14 00:39:44;;;;;;;2.08;1.05;;;4.20;91.30;;;;;;5095280;28;20047;-72
2023/02/14 00:42:12;;;;;;;1.80;1.15;;;4.20;91.30;;;;;;5094737;28;20093;-72
2023/02/14 00:44:38;;;;;;;1.63;0.95;;;4.20;91.30;;;;;;5094674;28;20489;-73
2023/02/14 00:47:03;;;;;;;2.22;1.23;;;4.20;91.30;;;;;;5113450;28;20050;-73
2023/02/14 00:49:29;;;;;;;3.60;1.42;;;4.10;91.40;;;;;;5112983;28;20034;-71
2023/02/14 00:51:55;;;;;;;2.40;1.30;;;4.10;91.30;;;;;;5112839;28;20067;-72
2023/02/14 00:54:20;;;;;;;2.58;1.40;;;4.20;91.30;;;;;;5113231;28;20142;-71
2023/02/14 00:56:46;;;;;;;2.40;1.30;;;4.10;91.30;;;;;;5113391;28;20520;-72
2023/02/14 00:59:12;;;;;;;2.92;1.48;;;4.10;91.30;;;;;;5094550;28;20039;-71
2023/02/14 01:01:38;;;;;;;1.73;1.00;;;4.10;91.30;;;;;;5094604;28;20400;-72
2023/02/14 01:04:04;;;;;;;1.73;1.13;;;4.00;91.30;;;;;;5094280;28;20051;-72
2023/02/14 01:06:30;;;;;;;1.75;1.08;;;4.00;91.30;;;;;;5113000;28;20028;-72
2023/02/14 01:08:56;;;;;;;1.70;1.10;;;4.00;91.30;;;;;;5094053;28;20067;-73
2023/02/14 01:11:23;;;;;;;2.13;1.17;;;4.00;91.30;;;;;;5077517;28;20486;-72
2023/02/14 01:13:52;;;;;;;1.60;1.13;;;4.00;91.40;;;;;;5094864;28;20388;-73
2023/02/14 01:16:20;;;;;;;1.98;1.13;;;4.00;91.40;;;;;;5112494;28;20036;-73
2023/02/14 01:18:47;;;;;;;1.80;1.10;;;3.90;91.30;;;;;;5113056;28;20047;-71
2023/02/14 01:21:16;;;;;;;1.40;0.90;;;3.90;91.40;;;;;;5113004;28;20101;-72
2023/02/14 01:23:43;;;;;;;1.55;0.90;;;3.90;91.40;;;;;;5112346;28;20047;-72
2023/02/14 01:26:09;;;;;;;1.55;1.02;;;3.80;91.40;;;;;;5112634;28;20043;-71
2023/02/14 01:28:35;;;;;;;1.67;1.10;;;3.80;91.40;;;;;;5112847;28;20040;-70
2023/02/14 01:31:10;;;;;;;2.78;1.33;;;3.80;91.40;;;;;;5112318;28;20122;-71
2023/02/14 01:33:38;;;;;;;1.92;1.35;;;3.80;91.40;;;;;;5094052;28;20050;-71
2023/02/14 01:36:04;;;;;;;1.75;1.10;;;3.80;91.40;;;;;;5097684;28;20406;-71
2023/02/14 01:38:29;;;;;;;1.63;1.10;;;3.80;91.40;;;;;;5098302;28;20039;-71
2023/02/14 01:40:55;;;;;;;2.25;1.15;;;3.80;91.40;;;;;;5115811;28;20442;-72
2023/02/14 01:43:21;;;;;;;1.92;1.20;;;3.80;91.40;;;;;;5115866;28;20042;-71
2023/02/14 01:45:47;;;;;;;1.55;1.02;;;3.70;91.40;;;;;;5080703;28;20481;-70
2023/02/14 01:48:14;;;;;;;1.73;1.00;;;3.80;91.40;;;;;;5097345;28;20396;-70
2023/02/14 01:50:44;;;;;;;1.92;1.17;;;3.80;91.40;;;;;;5097857;28;20096;-70
2023/02/14 01:53:15;;;;;;;2.05;1.25;;;3.70;91.40;;;;;;5097523;28;20043;-71
2023/02/14 01:55:46;;;;;;;2.50;1.25;;;3.80;91.40;;;;;;5097171;28;20481;-71
2023/02/14 01:58:17;;;;;;;1.55;1.08;;;3.70;91.40;;;;;;5095477;28;20402;-70
2023/02/14 02:00:58;;;;;;;2.97;1.75;;;3.70;91.40;;;;;;5115540;28;20058;-70
2023/02/14 02:03:52;;;;;;;2.08;1.25;;;3.70;91.70;;;;;;5099950;28;20064;-70
2023/02/14 02:06:25;;;;;;;1.45;0.90;;;3.70;91.50;;;;;;5114793;28;20465;-70
2023/02/14 02:09:17;;;;;;;1.83;1.10;;;3.70;91.40;;;;;;5097043;28;20050;-70
2023/02/14 02:11:43;;;;;;;1.60;1.02;;;3.70;91.40;;;;;;5113414;28;20102;-70
2023/02/14 02:14:14;;;;;;;1.63;0.93;;;3.60;91.40;;;;;;5096490;28;20043;-70
2023/02/14 02:17:13;;;;;;;2.00;0.95;;;3.70;91.50;;;;;;5115720;28;20036;-71
2023/02/14 02:20:13;;;;;;;1.27;0.80;;;3.60;91.40;;;;;;5096788;28;20519;-70
2023/02/14 02:23:13;;;;;;;3.63;1.30;;;3.50;91.40;;;;;;5115056;28;20081;-71
2023/02/14 02:26:08;;;;;;;1.33;0.90;;;3.50;91.50;;;;;;5114912;28;20092;-71
2023/02/14 02:29:06;;;;;;;1.55;0.90;;;3.50;91.40;;;;;;5114886;28;20120;-70
2023/02/14 02:32:04;;;;;;;2.45;1.08;;;3.50;91.40;;;;;;5113298;28;20039;-71
2023/02/14 02:35:04;;;;;;;1.33;0.90;;;3.50;91.50;;;;;;5094621;28;20046;-70
2023/02/14 02:37:45;;;;;;;1.63;0.80;;;3.50;91.50;;;;;;5094823;28;20379;-70
2023/02/14 02:40:41;;;;;;;1.53;0.87;;;3.40;91.50;;;;;;5115304;28;20503;-70
2023/02/14 02:43:36;;;;;;;1.50;0.73;;;3.30;91.50;;;;;;5114345;28;20277;-70
2023/02/14 02:49:03;;;;;;;1.08;0.82;;;3.30;91.50;;;;;;5114667;28;20048;-71
2023/02/14 02:54:43;;;;;;;1.65;0.80;;;3.20;91.60;;;;;;5112536;28;20055;-70
2023/02/14 02:57:18;;;;;;;1.27;0.90;;;3.30;91.60;;;;;;5095540;28;20047;-70
2023/02/14 02:59:44;;;;;;;1.92;1.30;;;3.20;91.60;;;;;;5114359;28;20032;-70
2023/02/14 03:02:22;;;;;;;1.38;0.70;;;3.20;91.60;;;;;;5114735;28;20137;-70
2023/02/14 03:04:54;;;;;;;0.98;0.75;;;3.20;91.60;;;;;;5114394;28;20044;-70
2023/02/14 03:07:33;;;;;;;1.35;0.98;;;3.20;91.60;;;;;;5096054;28;20048;-70
2023/02/14 03:10:17;;;;;;;1.08;0.80;;;3.20;91.60;;;;;;5114167;28;20038;-70
2023/02/14 03:13:09;;;;;;;1.65;0.75;;;3.20;91.60;;;;;;5114748;28;20035;-71
2023/02/14 03:15:52;;;;;;;1.00;0.70;;;3.10;91.60;;;;;;5100018;28;20043;-70
2023/02/14 03:18:38;;;;;;;1.48;0.88;;;3.10;91.60;;;;;;5112815;28;20040;-70
2023/02/14 03:21:26;;;;;;;1.25;0.80;;;3.10;91.60;;;;;;5112225;28;20477;-70
2023/02/14 03:24:31;;;;;;;1.20;0.65;;;3.00;91.60;;;;;;5112688;28;20121;-71
2023/02/14 03:27:17;;;;;;;1.42;0.80;;;3.00;91.90;;;;;;5095872;28;20123;-70
2023/02/14 03:30:17;;;;;;;1.70;1.00;;;2.90;91.60;;;;;;5113071;28;20047;-71
2023/02/14 03:32:51;;;;;;;2.03;0.90;;;3.00;91.70;;;;;;5113818;28;20035;-70
2023/02/14 03:35:27;;;;;;;1.50;0.95;;;2.90;91.60;;;;;;5096945;28;20122;-70
2023/02/14 03:38:02;;;;;;;1.55;1.10;;;3.00;91.60;;;;;;5113905;28;20043;-71
2023/02/14 03:40:40;;;;;;;1.75;1.05;;;2.90;91.60;;;;;;5096626;28;20044;-73
2023/02/14 03:43:26;;;;;;;1.13;0.80;;;3.00;91.60;;;;;;5113865;28;20035;-71
2023/02/14 03:46:06;;;;;;;1.50;0.77;;;2.90;91.60;;;;;;5114130;28;20051;-73
2023/02/14 03:48:33;;;;;;;1.17;0.80;;;2.80;91.60;;;;;;5113843;28;20131;-73
2023/02/14 03:51:01;;;;;;;0.77;0.70;;;2.80;91.70;;;;;;5113719;28;20044;-72
2023/02/14 03:53:31;;;;;;;1.27;0.80;;;2.80;91.70;;;;;;5113773;28;20035;-73
2023/02/14 03:56:09;;;;;;;1.05;0.80;;;2.80;91.70;;;;;;5113592;28;20047;-72
2023/02/14 03:58:38;;;;;;;1.23;0.82;;;2.80;91.70;;;;;;5112580;28;20036;-72
2023/02/14 04:01:12;;;;;;;1.60;0.90;;;2.80;91.70;;;;;;5113847;28;20136;-72
2023/02/14 04:03:40;;;;;;;1.52;0.90;;;2.80;91.70;;;;;;5113545;28;20043;-72
2023/02/14 04:06:06;;;;;;;1.33;0.90;;;2.70;91.70;;;;;;5113549;28;20036;-73
2023/02/14 04:08:32;;;;;;;1.50;0.90;;;2.70;91.70;;;;;;5113357;28;20058;-72
2023/02/14 04:11:00;;;;;;;1.60;0.80;;;2.70;91.70;;;;;;5095740;28;20077;-73
2023/02/14 04:13:26;;;;;;;1.38;1.00;;;2.70;91.70;;;;;;5113373;28;20046;-72
2023/02/14 04:15:52;;;;;;;0.93;0.65;;;2.70;91.70;;;;;;5113254;28;20035;-73
2023/02/14 04:20:57;;;;;;;1.90;0.90;;;2.70;91.70;;;;;;5097228;28;20056;-72
2023/02/14 04:23:23;;;;;;;1.42;1.00;;;2.70;91.70;;;;;;5113748;28;20442;-72
2023/02/14 04:25:49;;;;;;;1.55;0.85;;;2.70;91.70;;;;;;5095128;28;20047;-73
2023/02/14 04:28:14;;;;;;;3.17;1.23;;;2.70;91.70;;;;;;5113656;28;20066;-72
2023/02/14 04:30:40;;;;;;;1.15;0.95;;;2.80;91.70;;;;;;5094852;28;20032;-72
2023/02/14 04:33:07;;;;;;;2.10;1.02;;;2.70;91.70;;;;;;5113149;28;20040;-72
2023/02/14 04:35:33;;;;;;;1.42;0.90;;;2.70;91.70;;;;;;5112837;28;20067;-72
2023/02/14 04:38:00;;;;;;;1.30;0.80;;;2.70;91.90;;;;;;5113101;28;20048;-72
2023/02/14 04:40:26;;;;;;;2.58;1.05;;;2.70;91.70;;;;;;5112729;28;20039;-72
2023/02/14 04:42:52;;;;;;;1.83;1.08;;;2.70;91.70;;;;;;5094397;28;20051;-73
2023/02/14 04:45:17;;;;;;;1.67;1.00;;;2.70;91.70;;;;;;5112861;28;20039;-73
2023/02/14 04:47:43;;;;;;;1.17;0.80;;;2.70;91.60;;;;;;5112797;28;20050;-72
2023/02/14 04:50:09;;;;;;;1.98;1.17;;;2.70;91.60;;;;;;5095086;28;20101;-72
2023/02/14 04:52:34;;;;;;;1.50;1.00;;;2.70;91.60;;;;;;5112773;28;20031;-72
2023/02/14 04:55:00;;;;;;;1.15;0.90;;;2.70;91.60;;;;;;5112831;28;20031;-72
2023/02/14 04:57:26;;;;;;;1.63;1.00;;;2.70;91.60;;;;;;5094673;28;20050;-72
2023/02/14 04:59:51;;;;;;;1.67;0.90;;;2.70;91.60;;;;;;5112795;28;20055;-72
2023/02/14 05:02:17;;;;;;;1.02;0.82;;;2.70;91.60;;;;;;5112595;28;20568;-72
2023/02/14 05:04:42;;;;;;;1.75;1.10;;;2.70;91.60;;;;;;5094725;28;20040;-72
2023/02/14 05:07:08;;;;;;;1.42;0.88;;;2.70;91.60;;;;;;5112522;28;20055;-72
2023/02/14 05:09:34;;;;;;;1.27;0.90;;;2.70;91.60;;;;;;5112653;28;20040;-72
2023/02/14 05:11:59;;;;;;;0.88;0.57;;;2.70;91.60;;;;;;5113265;28;20032;-72
2023/02/14 05:14:25;;;;;;;1.30;0.73;;;2.70;91.60;;;;;;5113157;28;20032;-72
2023/02/14 05:16:51;;;;;;;1.45;0.90;;;2.70;91.70;;;;;;5112866;28;20036;-73
2023/02/14 05:19:16;;;;;;;0.65;0.50;;;2.70;91.70;;;;;;5112681;28;20374;-72
2023/02/14 05:21:42;;;;;;;0.80;0.70;;;2.60;91.60;;;;;;5094987;28;20039;-72
2023/02/14 05:24:08;;;;;;;1.50;0.70;;;2.60;91.60;;;;;;5113027;28;20036;-72
2023/02/14 05:26:33;;;;;;;1.15;0.80;;;2.60;91.70;;;;;;5112633;28;20457;-72
2023/02/14 05:28:59;;;;;;;0.80;0.63;;;2.60;91.70;;;;;;5094853;28;20063;-72
2023/02/14 05:31:24;;;;;;;1.00;0.68;;;2.50;91.70;;;;;;5113180;28;20028;-72
2023/02/14 05:33:50;;;;;;;0.98;0.70;;;2.50;91.80;;;;;;5113245;28;20123;-73
2023/02/14 05:36:16;;;;;;;1.33;0.75;;;2.50;91.70;;;;;;5112622;28;20046;-72
2023/02/14 05:38:41;;;;;;;1.17;0.85;;;2.50;91.70;;;;;;5094266;28;20050;-73
2023/02/14 05:41:07;;;;;;;0.90;0.70;;;2.50;92.00;;;;;;5094274;28;20051;-72
2023/02/14 05:43:32;;;;;;;1.08;0.60;;;2.40;91.80;;;;;;5094281;28;20069;-72
2023/02/14 05:45:59;;;;;;;0.68;0.65;;;2.40;91.80;;;;;;5094141;28;20072;-73
2023/02/14 05:48:24;;;;;;;1.80;0.98;;;2.30;91.90;;;;;;5112308;28;20074;-72
2023/02/14 05:50:50;;;;;;;1.20;0.90;;;2.20;91.90;;;;;;5112634;28;20067;-72
2023/02/14 05:53:16;;;;;;;1.00;0.60;;;2.20;91.90;;;;;;5112317;28;20054;-73
2023/02/14 05:55:42;;;;;;;1.33;0.70;;;2.20;91.90;;;;;;5112020;28;20036;-73
2023/02/14 05:58:07;;;;;;;1.08;0.68;;;2.10;91.90;;;;;;5093963;28;20497;-71
2023/02/14 06:00:33;;;;;;;1.27;0.75;;;2.10;92.00;;;;;;5094518;28;20051;-72
2023/02/14 06:03:00;;;;;;;1.08;0.75;;;2.20;92.00;;;;;;5112061;28;20055;-74
2023/02/14 06:05:26;;;;;;;1.25;0.80;;;2.10;92.00;;;;;;5111995;28;20040;-71
2023/02/14 06:07:52;;;;;;;0.65;0.52;;;2.10;92.30;;;;;;5093717;28;20397;-71
2023/02/14 06:10:19;;;;;;;1.13;0.70;;;2.10;92.00;;;;;;5111834;28;20036;-73
2023/02/14 06:12:47;;;;;;;1.27;0.80;;;2.00;91.90;;;;;;5093757;28;20063;-73
2023/02/14 06:15:13;;;;;;;1.58;0.82;;;2.00;92.00;;;;;;5112364;28;20050;-74
2023/02/14 06:17:38;;;;;;;0.95;0.73;;;2.00;92.00;;;;;;5111971;28;20126;-73
2023/02/14 06:20:05;;;;;;;1.08;0.70;;;2.00;92.00;;;;;;5111755;28;20035;-73
2023/02/14 06:22:31;;;;;;;1.10;0.70;;;2.00;92.00;;;;;;5114762;28;20599;-73
2023/02/14 06:24:56;;;;;;;0.90;0.80;;;1.90;92.00;;;;;;5097523;28;20127;-72
2023/02/14 06:27:22;;;;;;;0.93;0.70;;;1.90;92.00;;;;;;5115448;28;20439;-73
2023/02/14 06:29:48;;;;;;;1.40;0.90;;;1.90;92.00;;;;;;5115658;28;20036;-72
2023/02/14 06:32:14;;;;;;;0.88;0.68;;;1.90;92.00;;;;;;5080022;28;20047;-72
2023/02/14 06:34:40;;;;;;;1.30;0.73;;;1.80;92.00;;;;;;5115131;28;20044;-73
2023/02/14 06:37:06;;;;;;;0.80;0.50;;;1.80;92.00;;;;;;5096764;28;20044;-74
2023/02/14 06:39:32;;;;;;;0.82;0.52;;;1.70;92.00;;;;;;5115496;28;20063;-73
2023/02/14 06:41:58;;;;;;;1.73;0.90;;;1.70;92.00;;;;;;5115354;28;20093;-73
2023/02/14 06:44:23;;;;;;;0.68;0.60;;;1.70;92.00;;;;;;5096597;28;20511;-73
2023/02/14 06:46:49;;;;;;;1.63;0.90;;;1.70;92.10;;;;;;5114901;28;20047;-73
2023/02/14 06:49:15;;;;;;;1.33;0.75;;;1.70;92.00;;;;;;5115257;28;20067;-73
2023/02/14 06:51:40;;;;;;;0.82;0.70;;;1.60;92.00;;;;;;5115059;28;20085;-73
2023/02/14 06:54:06;;;;;;;0.98;0.70;;;1.60;92.00;;;;;;5096463;28;20505;-73
2023/02/14 06:56:32;;;;;;;2.13;0.90;;;1.60;92.00;;;;;;5096540;28;20036;-74
2023/02/14 06:58:57;;;;;;;1.23;0.80;;;1.60;92.10;;;;;;5079676;28;20157;-74
2023/02/14 07:01:23;;;;;;;1.13;0.85;;;1.60;92.10;;;;;;5079650;28;20040;-74
2023/02/14 07:03:49;;;;;;;1.33;0.80;;;1.60;92.10;;;;;;5097168;28;20046;-74
2023/02/14 07:06:14;;;;;;;1.55;0.90;;;1.50;92.00;;;;;;5096939;28;20166;-74
2023/02/14 07:08:41;;;;;;;2.35;0.90;;;1.50;92.00;;;;;;5079537;28;20047;-73
2023/02/14 07:11:06;;;;;;;1.48;0.95;;;1.50;92.00;;;;;;5096653;28;20126;-73
2023/02/14 07:13:32;;;;;;;1.42;0.90;;;1.50;92.00;;;;;;5115155;28;20064;-74
2023/02/14 07:15:58;;;;;;;1.02;0.80;;;1.50;92.00;;;;;;5114997;28;20097;-74
2023/02/14 07:18:23;;;;;;;1.17;0.77;;;1.50;92.00;;;;;;5114561;28;20042;-73
2023/02/14 07:20:49;;;;;;;1.23;0.90;;;1.50;92.00;;;;;;5114378;28;20035;-73
2023/02/14 07:23:15;;;;;;;1.10;0.80;;;1.50;92.00;;;;;;5096031;28;20043;-74
2023/02/14 07:25:41;;;;;;;1.27;0.80;;;1.50;92.00;;;;;;5114321;28;20036;-74
2023/02/14 07:28:07;;;;;;;1.25;0.82;;;1.50;92.00;;;;;;5114047;28;20051;-73
2023/02/14 07:30:32;;;;;;;1.45;0.82;;;1.60;92.00;;;;;;5095921;28;20125;-73
2023/02/14 07:32:58;;;;;;;1.92;0.95;;;1.50;92.00;;;;;;5078857;28;20493;-73
2023/02/14 07:35:23;;;;;;;1.38;0.80;;;1.60;92.00;;;;;;5114057;28;20530;-73
2023/02/14 07:37:50;;;;;;;1.05;0.77;;;1.60;91.90;;;;;;5078961;28;20039;-72
2023/02/14 07:40:16;;;;;;;1.05;0.80;;;1.60;91.90;;;;;;5095933;28;20103;-72
2023/02/14 07:42:42;;;;;;;0.55;0.55;;;1.60;91.90;;;;;;5095800;28;20120;-72
2023/02/14 07:45:08;;;;;;;1.15;0.60;;;1.70;91.90;;;;;;5113916;28;20047;-72
2023/02/14 07:47:34;;;;;;;1.13;0.70;;;1.70;91.80;;;;;;5113806;28;20084;-72
2023/02/14 07:50:00;;;;;;;1.60;0.90;;;1.70;91.80;;;;;;5113989;28;20123;-72
2023/02/14 07:52:25;;;;;;;1.52;0.77;;;1.80;91.80;;;;;;5095762;28;20467;-72
2023/02/14 07:54:51;;;;;;;0.98;0.75;;;1.80;91.80;;;;;;5113694;28;20035;-72
2023/02/14 07:57:16;;;;;;;0.80;0.60;;;1.90;91.70;;;;;;5113847;28;20045;-72
2023/02/14 07:59:42;;;;;;;0.88;0.57;;;1.90;91.70;;;;;;5114335;28;20467;-72
2023/02/14 08:02:11;;;;;;;1.10;0.60;;;2.00;91.70;;;;;;5096068;28;20473;-72
2023/02/14 08:04:36;;;;;;;0.82;0.70;;;2.10;91.70;;;;;;5113681;28;20040;-72
2023/02/14 08:07:02;;;;;;;0.88;0.65;;;2.10;91.60;;;;;;5113958;28;20040;-72
2023/02/14 08:09:28;;;;;;;1.35;0.77;;;2.20;91.60;;;;;;5113657;28;20044;-72
2023/02/14 08:14:36;;;;;;;2.00;1.17;;;2.40;91.60;;;;;;5113493;28;20501;-72
2023/02/14 08:17:02;;;;;;;0.77;0.57;;;2.60;91.60;;;;;;5078326;28;20031;-73
2023/02/14 08:19:29;;;;;;;1.25;0.70;;;2.60;91.40;;;;;;5113645;28;20075;-72
2023/02/14 08:21:54;;;;;;;0.68;0.65;;;2.70;91.40;;;;;;5113817;28;20453;-72
2023/02/14 08:24:20;;;;;;;1.58;1.00;;;2.80;91.30;;;;;;5113394;28;20040;-72
2023/02/14 08:26:45;;;;;;;1.17;0.95;;;2.90;91.20;;;;;;5095000;28;20032;-73
2023/02/14 08:29:11;;;;;;;1.65;1.10;;;3.00;91.20;;;;;;5113142;28;20065;-72
2023/02/14 08:31:37;;;;;;;1.42;0.80;;;3.20;91.20;;;;;;5113829;28;20088;-72
2023/02/14 08:34:04;;;;;;;1.92;1.10;;;3.20;91.10;;;;;;5113848;28;20035;-72
2023/02/14 08:36:30;;;;;;;3.25;1.23;;;3.40;91.10;;;;;;5113716;28;20119;-73
2023/02/14 08:38:56;;;;;;;1.75;1.00;;;3.40;91.00;;;;;;5078136;28;20480;-72
2023/02/14 08:41:22;;;;;;;2.28;1.40;;;3.50;91.00;;;;;;5113864;28;20126;-72
2023/02/14 08:43:49;;;;;;;2.00;1.15;;;3.60;91.00;;;;;;5112599;28;20044;-73
2023/02/14 08:46:15;;;;;;;1.45;1.10;;;3.70;91.00;;;;;;5113569;28;20044;-73
2023/02/14 08:48:42;;;;;;;2.10;1.27;;;3.70;90.90;;;;;;5094957;28;20127;-72
2023/02/14 08:51:10;;;;;;;1.52;1.05;;;3.80;90.90;;;;;;5113327;28;20043;-72
2023/02/14 08:53:37;;;;;;;1.95;1.05;;;3.90;90.90;;;;;;5113087;28;20052;-70
2023/02/14 08:56:05;;;;;;;2.22;1.30;;;3.90;90.80;;;;;;5113126;28;20070;-72
2023/02/14 08:58:31;;;;;;;1.35;1.00;;;4.00;90.80;;;;;;5113471;28;20543;-72
2023/02/14 09:00:57;;;;;;;1.58;1.00;;;4.10;90.80;;;;;;5112865;28;20050;-72
2023/02/14 09:03:23;;;;;;;1.90;1.30;;;4.20;90.80;;;;;;5113000;28;20485;-72
2023/02/14 09:05:49;;;;;;;1.65;1.05;;;4.20;90.80;;;;;;5112743;28;20101;-72
2023/02/14 09:08:15;;;;;;;2.53;1.35;;;4.30;90.80;;;;;;5112809;28;20051;-72
2023/02/14 09:10:40;;;;;;;1.80;1.08;;;4.40;90.80;;;;;;5094663;28;20512;-72
2023/02/14 09:13:06;;;;;;;1.67;1.02;;;4.40;90.70;;;;;;5094528;28;20089;-72
2023/02/14 09:15:32;;;;;;;1.90;1.48;;;4.50;90.60;;;;;;5112472;28;20042;-73
2023/02/14 09:17:57;;;;;;;2.17;1.40;;;4.50;90.70;;;;;;5094953;28;20054;-72
2023/02/14 09:20:23;;;;;;;2.13;1.20;;;4.70;90.70;;;;;;5113070;28;20035;-70
2023/02/14 09:22:49;;;;;;;1.83;1.20;;;4.70;90.70;;;;;;5112425;28;20062;-72
2023/02/14 09:25:15;;;;;;;1.38;1.00;;;4.80;90.60;;;;;;5112422;28;20093;-72
2023/02/14 09:27:40;;;;;;;1.95;1.27;;;4.80;90.60;;;;;;5094135;28;20051;-72
2023/02/14 09:30:08;;;;;;;2.28;1.20;;;4.90;90.60;;;;;;5112347;28;20122;-72
2023/02/14 09:32:34;;;;;;;1.33;1.13;;;5.00;90.60;;;;;;5112397;28;20039;-73
2023/02/14 09:35:00;;;;;;;1.40;1.00;;;5.10;90.60;;;;;;5094079;28;20035;-72
2023/02/14 09:40:07;;;;;;;2.53;1.55;;;5.20;90.50;;;;;;5112191;28;20042;-72
2023/02/14 09:43:01;;;;;;;1.73;1.17;;;5.30;90.80;;;;;;5094051;28;20081;-72
2023/02/14 09:45:29;;;;;;;3.45;1.63;;;5.40;90.50;;;;;;5110286;28;20478;-73
2023/02/14 09:48:02;;;;;;;2.08;1.20;;;5.40;90.50;;;;;;5112236;28;20047;-72
2023/02/14 09:50:53;;;;;;;2.90;1.70;;;5.50;90.50;;;;;;5112287;28;20046;-72
2023/02/14 09:53:26;;;;;;;2.17;1.30;;;5.60;90.50;;;;;;5112183;28;20572;-72
2023/02/14 09:56:22;;;;;;;2.75;1.40;;;5.60;90.40;;;;;;5113341;28;20039;-72
2023/02/14 09:59:22;;;;;;;2.25;1.35;;;5.70;90.30;;;;;;5114475;28;20043;-72
2023/02/14 10:01:57;;;;;;;1.98;1.30;;;5.80;90.30;;;;;;5097340;28;20134;-72
2023/02/14 10:04:48;;;;;;;2.90;1.52;;;5.90;90.30;;;;;;5115898;28;20059;-72
2023/02/14 10:07:53;;;;;;;2.35;1.30;;;5.90;90.30;;;;;;5115176;28;20040;-72
2023/02/14 10:10:30;;;;;;;1.27;0.90;;;6.00;90.30;;;;;;5114012;28;20039;-72
2023/02/14 10:13:34;;;;;;;2.70;1.30;;;6.10;90.30;;;;;;5115270;28;20070;-73
2023/02/14 10:16:17;;;;;;;2.95;1.58;;;6.20;90.30;;;;;;5115225;28;20036;-72
2023/02/14 10:19:04;;;;;;;2.10;1.20;;;6.20;90.20;;;;;;5116032;28;20047;-72
2023/02/14 10:21:35;;;;;;;2.38;1.20;;;6.40;90.20;;;;;;5113991;28;20039;-72
2023/02/14 10:24:12;;;;;;;2.60;1.48;;;6.40;90.10;;;;;;5095235;28;20040;-72
2023/02/14 10:26:40;;;;;;;1.75;1.13;;;6.50;90.10;;;;;;5114875;28;20038;-72
2023/02/14 10:29:14;;;;;;;2.95;1.77;;;6.60;90.10;;;;;;5114967;28;20168;-72
2023/02/14 10:31:55;;;;;;;3.20;1.90;;;6.70;90.00;;;;;;5080480;28;20491;-73
2023/02/14 10:34:47;;;;;;;2.08;1.40;;;6.80;90.00;;;;;;5114913;28;20097;-72
2023/02/14 10:37:45;;;;;;;2.40;1.48;;;6.90;89.90;;;;;;5115407;28;20039;-72
2023/02/14 10:40:41;;;;;;;2.00;1.35;;;7.00;89.80;;;;;;5101756;28;20055;-72
2023/02/14 10:43:33;;;;;;;2.05;1.38;;;7.00;89.70;;;;;;5096535;28;20042;-73
2023/02/14 10:46:35;;;;;;;1.45;1.02;;;7.10;89.80;;;;;;5114799;28;20032;-72
2023/02/14 10:49:26;;;;;;;1.80;1.20;;;7.20;89.70;;;;;;5115501;28;20176;-72
2023/02/14 10:52:06;;;;;;;2.20;1.30;;;7.30;89.60;;;;;;5095264;28;20060;-72
2023/02/14 10:54:44;;;;;;;2.80;1.52;;;7.40;89.50;;;;;;5114712;28;20265;-73
2023/02/14 10:57:19;;;;;;;3.05;1.33;;;7.50;89.50;;;;;;5115278;28;20036;-72
2023/02/14 11:00:04;;;;;;;1.85;1.10;;;7.60;89.40;;;;;;5096453;28;20042;-72
2023/02/14 11:02:33;;;;;;;2.47;1.50;;;7.60;89.30;;;;;;5114918;28;20139;-72
2023/02/14 11:05:01;;;;;;;2.20;1.35;;;7.70;89.40;;;;;;5114380;28;20044;-73
2023/02/14 11:07:28;;;;;;;3.47;1.80;;;7.80;89.30;;;;;;5114150;28;20046;-72
2023/02/14 11:09:54;;;;;;;2.90;1.73;;;7.80;89.20;;;;;;5097053;28;20040;-72
2023/02/14 11:12:38;;;;;;;2.33;1.38;;;8.00;89.10;;;;;;5114816;28;20137;-73
2023/02/14 11:15:19;;;;;;;3.05;1.60;;;8.10;89.10;;;;;;5115068;28;20039;-73
2023/02/14 11:17:45;;;;;;;3.25;1.92;;;8.10;88.90;;;;;;5114984;28;20055;-73
2023/02/14 11:20:26;;;;;;;1.80;1.23;;;8.10;88.80;;;;;;5096109;28;20082;-73
2023/02/14 11:22:52;;;;;;;;;;;8.20;88.90;;;;;;5097301;28;20137;-73
2023/02/14 11:25:22;;;;;;;2.10;1.25;;;8.30;88.90;;;;;;5114397;28;19950;-73
2023/02/14 11:27:53;;;;;;;2.15;1.30;;;8.30;88.80;;;;;;5114790;28;20123;-72
2023/02/14 11:30:26;;;;;;;2.15;1.35;;;8.40;88.70;;;;;;5096014;28;20477;-73
2023/02/14 11:32:54;;;;;;;2.85;1.42;;;8.50;88.70;;;;;;5096883;28;20047;-73
2023/02/14 11:35:25;;;;;;;2.85;1.60;;;8.50;88.60;;;;;;5114326;28;20040;-73
2023/02/14 11:37:54;;;;;;;3.42;1.80;;;8.60;88.60;;;;;;5096678;28;20050;-73
2023/02/14 11:40:32;;;;;;;2.72;1.55;;;8.70;88.50;;;;;;5114580;28;20039;-72
2023/02/14 11:43:00;;;;;;;2.97;1.77;;;8.80;88.40;;;;;;5113955;28;20047;-73
2023/02/14 11:45:30;;;;;;;3.13;1.60;;;8.90;88.20;;;;;;5114094;28;20048;-73
2023/02/14 11:48:20;;;;;;;2.90;1.90;;;8.90;88.20;;;;;;5114007;28;20050;-73
2023/02/14 11:50:59;;;;;;;2.83;1.67;;;9.10;88.20;;;;;;5114032;28;20039;-73
2023/02/14 11:53:27;;;;;;;2.85;1.70;;;9.10;87.90;;;;;;5114559;28;20109;-72
2023/02/14 11:55:56;;;;;;;3.70;1.90;;;9.20;87.90;;;;;;5078900;28;20035;-73
2023/02/14 11:58:35;;;;;;;3.70;1.73;;;9.30;88.40;;;;;;5114469;28;20052;-73
2023/02/14 12:01:02;;;;;;;5.20;2.53;;;9.40;87.50;;;;;;5113807;28;20067;-73
2023/02/14 12:03:37;;;;;;;3.47;2.03;;;9.50;87.40;;;;;;5114010;28;20047;-72
2023/02/14 12:06:03;;;;;;;2.97;1.88;;;9.70;87.20;;;;;;5113768;28;20520;-73
2023/02/14 12:08:30;;;;;;;3.40;1.92;;;9.80;86.90;;;;;;5095501;28;20443;-73
2023/02/14 12:11:16;;;;;;;3.78;2.13;;;9.90;86.80;;;;;;5114210;28;20031;-73
2023/02/14 12:13:52;;;;;;;6.78;2.47;;;10.00;86.60;;;;;;5112497;28;20039;-73
2023/02/14 12:16:24;;;;;;;3.58;2.03;;;10.10;86.60;;;;;;5113107;28;20066;-73
2023/02/14 12:18:55;;;;;;;3.55;2.00;;;10.30;86.40;;;;;;5094351;28;20138;-73
2023/02/14 12:21:25;;;;;;;;;;;10.40;86.30;;;;;;5096223;28;20055;-74
2023/02/14 12:24:02;;;;;;;4.07;2.00;;;10.50;86.00;;;;;;5095271;28;19920;-74
2023/02/14 12:26:53;;;;;;;2.70;1.70;;;10.70;85.80;;;;;;5112148;28;20039;-73
2023/02/14 12:29:36;;;;;;;;;;;10.80;85.60;;;;;;5113177;28;20036;-73
2023/02/14 12:32:15;;;;;;;3.60;1.60;;;10.80;85.50;;;;;;5094990;28;19918;-73
2023/02/14 12:34:41;;;;;;;2.45;1.50;;;10.90;85.50;;;;;;5113248;28;20115;-72
2023/02/14 12:37:20;;;;;;;1.63;1.23;;;10.90;85.40;;;;;;5113583;28;20521;-72
2023/02/14 12:40:09;;;;;;;2.88;1.85;;;11.00;85.50;;;;;;5111882;28;20040;-73
2023/02/14 12:43:01;;;;;;;2.75;1.58;;;11.00;85.30;;;;;;5077930;28;20039;-73
2023/02/14 12:45:57;;;;;;;3.72;2.22;;;11.10;85.30;;;;;;5113107;28;20050;-73
2023/02/14 12:48:49;;;;;;;2.47;1.55;;;11.20;85.30;;;;;;5094817;28;20096;-73
2023/02/14 12:51:28;;;;;;;2.78;1.50;;;11.40;85.00;;;;;;5111872;28;20042;-73
2023/02/14 12:54:18;;;;;;;3.03;1.73;;;11.50;84.80;;;;;;5113018;28;20043;-73
2023/02/14 12:57:18;;;;;;;2.20;1.42;;;11.50;84.60;;;;;;5113442;28;20043;-73
2023/02/14 13:00:18;;;;;;;2.97;1.77;;;11.50;84.60;;;;;;5098289;28;20039;-73
2023/02/14 13:03:08;;;;;;;2.40;1.70;;;11.50;84.80;;;;;;5099843;28;20047;-73
2023/02/14 13:06:08;;;;;;;2.72;1.70;;;11.60;84.80;;;;;;5092922;28;20036;-73
2023/02/14 13:09:02;;;;;;;2.35;1.45;;;11.60;84.60;;;;;;5111244;28;20044;-73
2023/02/14 13:11:46;;;;;;;2.22;1.50;;;11.70;84.60;;;;;;5098468;28;20118;-73
2023/02/14 13:14:49;;;;;;;2.55;1.38;;;11.80;84.60;;;;;;5112786;28;20031;-73
2023/02/14 13:17:33;;;;;;;2.50;1.63;;;11.80;84.40;;;;;;5082856;28;20192;-73
2023/02/14 13:20:21;;;;;;;2.35;1.38;;;11.90;84.30;;;;;;5112632;28;20035;-73
2023/02/14 13:22:47;;;;;;;3.65;2.25;;;12.00;84.10;;;;;;5112696;28;20098;-73
2023/02/14 13:28:11;;;;;;;3.88;2.30;;;12.20;83.80;;;;;;5112429;28;20040;-73
2023/02/14 13:30:37;;;;;;;3.40;1.80;;;12.20;83.60;;;;;;5096099;28;20100;-73
2023/02/14 13:33:26;;;;;;;3.28;1.83;;;12.30;83.60;;;;;;5116031;28;20114;-73
2023/02/14 13:35:56;;;;;;;3.85;1.98;;;12.30;83.50;;;;;;5116230;28;20039;-73
2023/02/14 13:38:23;;;;;;;4.13;2.00;;;12.30;83.50;;;;;;5116569;28;20131;-74
2023/02/14 13:40:49;;;;;;;2.50;1.60;;;12.40;83.50;;;;;;5095849;28;20489;-73